Time;durP1;ratioP1;P1;durP2;ratioP2;P2;SDS_P1;SDS_P2;PMS_P1;PMS_P2;Temp;Humidity;BMP_temperature;BMP_pressure;BME280_temperature;BME280_humidity;BME280_pressure;Samples;Min_cycle;Max_cycle;Signal;HPM_P1;HPM_P2
2022/09/19 00:00:43;;;;;;;14.77;7.80;;;;;;;;;;3394819;42;20094;-58
2022/09/19 00:03:09;;;;;;;16.27;6.97;;;;;;;;;;3394597;42;20175;-57
2022/09/19 00:05:39;;;;;;;13.65;7.55;;;;;;;;;;3394626;42;20117;-58
2022/09/19 00:08:06;;;;;;;14.82;7.00;;;;;;;;;;3394928;42;20182;-60
2022/09/19 00:10:37;;;;;;;13.70;7.00;;;;;;;;;;3394639;42;20105;-59
2022/09/19 00:13:04;;;;;;;14.65;8.30;;;;;;;;;;3385053;42;20241;-59
2022/09/19 00:15:32;;;;;;;13.07;6.88;;;;;;;;;;3395237;42;20082;-59
2022/09/19 00:17:58;;;;;;;12.48;7.22;;;;;;;;;;3394789;42;20644;-58
2022/09/19 00:20:24;;;;;;;14.68;7.10;;;;;;;;;;3394705;42;20082;-58
2022/09/19 00:25:34;;;;;;;15.70;7.25;;;;;;;;;;3393161;42;20606;-61
2022/09/19 00:28:00;;;;;;;14.93;6.63;;;;;;;;;;3394633;42;20752;-58
2022/09/19 00:30:26;;;;;;;13.80;6.45;;;;;;;;;;3394161;42;20140;-62
2022/09/19 00:32:53;;;;;;;11.63;6.00;;;;;;;;;;3394219;42;20101;-61
2022/09/19 00:35:20;;;;;;;16.33;7.07;;;;;;;;;;3393926;42;20145;-58
2022/09/19 00:37:46;;;;;;;13.65;6.70;;;;;;;;;;3385319;42;20086;-58
2022/09/19 00:40:12;;;;;;;13.88;6.55;;;;;;;;;;3394334;42;20096;-58
2022/09/19 00:42:38;;;;;;;14.47;6.17;;;;;;;;;;3382585;42;20094;-59
2022/09/19 00:45:12;;;;;;;13.55;6.30;;;;;;;;;;3385279;42;20086;-59
2022/09/19 00:47:40;;;;;;;15.25;6.60;;;;;;;;;;3375817;42;20091;-58
2022/09/19 00:50:13;;;;;;;15.63;6.22;;;;;;;;;;3384639;42;20501;-59
2022/09/19 00:52:39;;;;;;;14.20;6.90;;;;;;;;;;3377753;42;20153;-59
2022/09/19 00:55:05;;;;;;;12.33;6.20;;;;;;;;;;3394404;42;20156;-56
2022/09/19 00:57:40;;;;;;;14.10;6.63;;;;;;;;;;3385032;42;20086;-61
2022/09/19 01:00:07;;;;;;;13.73;6.57;;;;;;;;;;3377902;42;20129;-59
2022/09/19 01:02:33;;;;;;;15.00;7.20;;;;;;;;;;3394199;42;20098;-57
2022/09/19 01:05:01;;;;;;;13.73;6.93;;;;;;;;;;3385097;42;20090;-57
2022/09/19 01:07:52;;;;;;;12.67;6.50;;;;;;;;;;3385326;42;20281;-58
2022/09/19 01:11:05;;;;;;;11.60;5.80;;;;;;;;;;3391884;42;20136;-58
2022/09/19 01:13:53;;;;;;;11.05;5.10;;;;;;;;;;3376690;42;20481;-59
2022/09/19 01:16:42;;;;;;;12.70;6.20;;;;;;;;;;3393331;42;20094;-58
2022/09/19 01:19:38;;;;;;;12.98;6.22;;;;;;;;;;3384620;42;20086;-58
2022/09/19 01:22:41;;;;;;;15.63;6.97;;;;;;;;;;3385038;42;20152;-58
2022/09/19 01:25:28;;;;;;;12.23;6.60;;;;;;;;;;3371670;42;20091;-58
2022/09/19 01:28:18;;;;;;;13.88;7.10;;;;;;;;;;3382473;42;20096;-61
2022/09/19 01:31:18;;;;;;;10.30;5.65;;;;;;;;;;3381024;42;20098;-59
2022/09/19 01:34:02;;;;;;;11.27;5.43;;;;;;;;;;3387327;42;20549;-61
2022/09/19 01:36:43;;;;;;;12.27;6.10;;;;;;;;;;3384027;42;20583;-58
2022/09/19 01:39:09;;;;;;;17.50;5.88;;;;;;;;;;3385606;42;20102;-61
2022/09/19 01:41:35;;;;;;;11.90;6.15;;;;;;;;;;3375138;42;20086;-60
2022/09/19 01:44:05;;;;;;;11.77;5.95;;;;;;;;;;3393757;42;20109;-59
2022/09/19 01:46:47;;;;;;;12.52;6.40;;;;;;;;;;3393349;42;20545;-61
2022/09/19 01:49:51;;;;;;;13.57;6.07;;;;;;;;;;3392515;42;20098;-60
2022/09/19 01:52:38;;;;;;;13.73;6.35;;;;;;;;;;3391698;42;20529;-58
2022/09/19 01:55:07;;;;;;;12.80;5.28;;;;;;;;;;3392698;42;20092;-58
2022/09/19 01:58:00;;;;;;;11.25;5.47;;;;;;;;;;3394633;42;20818;-56
2022/09/19 02:00:26;;;;;;;11.85;5.75;;;;;;;;;;3376818;42;20091;-60
2022/09/19 02:03:04;;;;;;;13.00;5.40;;;;;;;;;;3377127;42;20087;-59
2022/09/19 02:05:51;;;;;;;11.10;5.38;;;;;;;;;;3394541;42;20918;-59
2022/09/19 02:08:28;;;;;;;12.52;5.65;;;;;;;;;;3384504;42;20169;-58
2022/09/19 02:11:00;;;;;;;11.52;4.72;;;;;;;;;;3384158;42;20101;-60
2022/09/19 02:13:27;;;;;;;11.10;4.60;;;;;;;;;;3377643;42;20534;-59
2022/09/19 02:15:59;;;;;;;10.32;4.28;;;;;;;;;;3372413;42;20549;-60
2022/09/19 02:18:38;;;;;;;10.98;4.40;;;;;;;;;;3373183;42;20087;-61
2022/09/19 02:21:11;;;;;;;8.80;3.88;;;;;;;;;;3384662;42;20157;-60
2022/09/19 02:23:39;;;;;;;8.40;4.10;;;;;;;;;;3393376;42;20090;-57
2022/09/19 02:26:06;;;;;;;9.43;3.50;;;;;;;;;;3382996;42;20143;-57
2022/09/19 02:28:38;;;;;;;10.27;3.50;;;;;;;;;;3379886;42;20152;-58
2022/09/19 02:31:05;;;;;;;11.52;4.00;;;;;;;;;;3382792;42;20090;-60
2022/09/19 02:33:35;;;;;;;10.88;3.95;;;;;;;;;;3384998;42;20097;-58
2022/09/19 02:36:14;;;;;;;8.90;3.70;;;;;;;;;;3396135;42;20584;-62
2022/09/19 02:39:11;;;;;;;11.73;3.63;;;;;;;;;;3394398;42;20074;-60
2022/09/19 02:42:08;;;;;;;9.18;3.80;;;;;;;;;;3382687;42;20079;-57
2022/09/19 02:45:10;;;;;;;10.82;4.03;;;;;;;;;;3364080;42;20102;-57
2022/09/19 02:48:03;;;;;;;10.98;3.63;;;;;;;;;;3363241;42;20605;-57
2022/09/19 02:51:01;;;;;;;9.77;3.65;;;;;;;;;;3380498;42;20114;-60
2022/09/19 02:53:30;;;;;;;8.33;3.33;;;;;;;;;;3384079;42;20102;-60
2022/09/19 02:55:58;;;;;;;8.90;3.53;;;;;;;;;;3369036;42;20158;-56
2022/09/19 02:58:25;;;;;;;9.77;3.70;;;;;;;;;;3382056;42;20094;-59
2022/09/19 03:00:53;;;;;;;10.63;4.07;;;;;;;;;;3376534;42;20079;-57
2022/09/19 03:06:10;;;;;;;10.60;4.00;;;;;;;;;;3383416;42;20114;-56
2022/09/19 03:08:37;;;;;;;9.15;3.95;;;;;;;;;;3376210;42;20166;-61
2022/09/19 03:11:07;;;;;;;9.00;3.70;;;;;;;;;;3371750;42;20551;-57
2022/09/19 03:13:34;;;;;;;10.23;3.80;;;;;;;;;;3376447;42;20125;-57
2022/09/19 03:16:04;;;;;;;10.25;3.88;;;;;;;;;;3383779;42;20528;-60
2022/09/19 03:18:30;;;;;;;8.13;3.80;;;;;;;;;;3375115;42;20099;-59
2022/09/19 03:21:01;;;;;;;8.30;3.70;;;;;;;;;;3378359;42;20517;-58
2022/09/19 03:23:36;;;;;;;9.35;3.92;;;;;;;;;;3389748;42;20141;-57
2022/09/19 03:26:03;;;;;;;8.90;3.47;;;;;;;;;;3385058;42;20094;-55
2022/09/19 03:28:29;;;;;;;8.02;3.67;;;;;;;;;;3376947;42;20082;-58
2022/09/19 03:30:59;;;;;;;11.93;3.70;;;;;;;;;;3384017;42;20098;-63
2022/09/19 03:33:26;;;;;;;11.60;3.53;;;;;;;;;;3392632;42;20105;-57
2022/09/19 03:35:52;;;;;;;8.73;3.53;;;;;;;;;;3392843;42;20584;-58
2022/09/19 03:38:19;;;;;;;9.18;3.45;;;;;;;;;;3392483;42;20146;-58
2022/09/19 03:40:45;;;;;;;10.80;3.67;;;;;;;;;;3392040;42;20098;-60
2022/09/19 03:43:11;;;;;;;10.30;3.88;;;;;;;;;;3392807;42;20105;-59
2022/09/19 03:45:37;;;;;;;11.88;3.50;;;;;;;;;;3392385;42;20086;-57
2022/09/19 03:48:04;;;;;;;8.10;3.80;;;;;;;;;;3393143;42;20163;-61
2022/09/19 03:50:30;;;;;;;9.40;3.63;;;;;;;;;;3395112;42;20216;-59
2022/09/19 03:52:58;;;;;;;10.32;3.50;;;;;;;;;;3392562;42;20090;-59
2022/09/19 03:55:24;;;;;;;12.02;4.82;;;;;;;;;;3392654;42;20149;-58
2022/09/19 03:57:50;;;;;;;11.23;3.60;;;;;;;;;;3392698;42;20087;-61
2022/09/19 04:00:16;;;;;;;10.03;3.93;;;;;;;;;;3392476;42;20140;-61
2022/09/19 04:02:42;;;;;;;9.35;4.07;;;;;;;;;;3392643;42;20556;-58
2022/09/19 04:05:09;;;;;;;8.88;3.85;;;;;;;;;;3392580;42;20091;-59
2022/09/19 04:07:37;;;;;;;8.73;3.33;;;;;;;;;;3392762;42;20620;-62
2022/09/19 04:10:07;;;;;;;13.45;3.90;;;;;;;;;;3393363;42;20090;-58
2022/09/19 04:12:33;;;;;;;7.40;3.50;;;;;;;;;;3394218;42;20137;-58
2022/09/19 04:15:00;;;;;;;10.48;3.50;;;;;;;;;;3394459;42;20101;-58
2022/09/19 04:17:27;;;;;;;9.50;3.75;;;;;;;;;;3395576;42;20160;-59
2022/09/19 04:19:53;;;;;;;8.85;3.70;;;;;;;;;;3384855;42;20458;-61
2022/09/19 04:22:21;;;;;;;7.85;3.20;;;;;;;;;;3393260;42;20555;-58
2022/09/19 04:24:48;;;;;;;9.00;3.20;;;;;;;;;;3393854;42;20558;-57
2022/09/19 04:27:14;;;;;;;7.65;3.47;;;;;;;;;;3394346;42;20680;-57
2022/09/19 04:29:43;;;;;;;12.20;3.65;;;;;;;;;;3383956;42;20079;-59
2022/09/19 04:32:09;;;;;;;7.43;3.30;;;;;;;;;;3381060;42;20114;-59
2022/09/19 04:34:35;;;;;;;13.02;4.03;;;;;;;;;;3393906;42;20145;-59
2022/09/19 04:37:03;;;;;;;10.57;3.53;;;;;;;;;;3395240;42;20207;-59
2022/09/19 04:39:29;;;;;;;9.63;3.63;;;;;;;;;;3394332;42;20564;-58
2022/09/19 04:41:56;;;;;;;9.90;3.65;;;;;;;;;;3383287;42;20087;-56
2022/09/19 04:44:22;;;;;;;10.73;3.60;;;;;;;;;;3392897;42;20177;-57
2022/09/19 04:46:50;;;;;;;11.65;4.00;;;;;;;;;;3393875;42;20086;-60
2022/09/19 04:49:17;;;;;;;9.57;3.53;;;;;;;;;;3392246;42;20098;-59
2022/09/19 04:51:43;;;;;;;8.70;3.72;;;;;;;;;;3384828;42;20173;-58
2022/09/19 04:54:10;;;;;;;9.35;3.53;;;;;;;;;;3394240;42;20113;-58
2022/09/19 04:56:37;;;;;;;8.40;3.50;;;;;;;;;;3383674;42;20137;-58
2022/09/19 04:59:03;;;;;;;9.80;4.10;;;;;;;;;;3393801;42;20094;-58
2022/09/19 05:01:30;;;;;;;9.30;3.37;;;;;;;;;;3393924;42;20580;-57
2022/09/19 05:03:57;;;;;;;7.88;4.10;;;;;;;;;;3393212;42;20109;-57
2022/09/19 05:06:27;;;;;;;10.93;3.70;;;;;;;;;;3393764;42;20182;-58
2022/09/19 05:08:53;;;;;;;11.95;3.78;;;;;;;;;;3384093;42;20094;-58
2022/09/19 05:11:21;;;;;;;11.60;3.60;;;;;;;;;;3393671;42;20166;-58
2022/09/19 05:13:48;;;;;;;8.80;3.30;;;;;;;;;;3394931;42;20300;-57
2022/09/19 05:16:15;;;;;;;9.75;3.60;;;;;;;;;;3391630;42;20548;-59
2022/09/19 05:18:41;;;;;;;10.93;3.60;;;;;;;;;;3393366;42;20109;-58
2022/09/19 05:21:10;;;;;;;10.43;3.55;;;;;;;;;;3394477;42;20090;-58
2022/09/19 05:23:36;;;;;;;10.38;3.90;;;;;;;;;;3395057;42;20091;-58
2022/09/19 05:26:15;;;;;;;8.43;3.33;;;;;;;;;;3395782;42;20086;-57
2022/09/19 05:28:41;;;;;;;7.85;3.20;;;;;;;;;;3388553;42;20201;-58
2022/09/19 05:31:07;;;;;;;9.52;3.47;;;;;;;;;;3397007;42;20101;-57
2022/09/19 05:33:33;;;;;;;8.80;3.40;;;;;;;;;;3395132;42;20098;-58
2022/09/19 05:36:01;;;;;;;9.98;3.50;;;;;;;;;;3387931;42;20094;-57
2022/09/19 05:38:28;;;;;;;9.10;3.33;;;;;;;;;;3394255;42;20086;-56
2022/09/19 05:40:54;;;;;;;11.40;4.00;;;;;;;;;;3383031;42;20083;-56
2022/09/19 05:43:20;;;;;;;7.68;3.47;;;;;;;;;;3381071;42;20102;-62
2022/09/19 05:45:46;;;;;;;9.32;3.75;;;;;;;;;;3384330;42;20109;-58
2022/09/19 05:48:14;;;;;;;9.47;3.30;;;;;;;;;;3393315;42;20086;-55
2022/09/19 05:50:42;;;;;;;7.95;3.75;;;;;;;;;;3392648;42;20082;-59
2022/09/19 05:55:56;;;;;;;7.45;3.50;;;;;;;;;;3385264;42;20146;-58
2022/09/19 05:58:24;;;;;;;10.27;3.65;;;;;;;;;;3384205;42;20086;-59
2022/09/19 06:00:50;;;;;;;8.90;3.90;;;;;;;;;;3384366;42;20140;-60
2022/09/19 06:03:17;;;;;;;8.88;3.58;;;;;;;;;;3385850;42;20205;-61
2022/09/19 06:05:45;;;;;;;11.20;3.75;;;;;;;;;;3383847;42;20195;-58
2022/09/19 06:08:11;;;;;;;14.32;4.00;;;;;;;;;;3393289;42;20180;-56
2022/09/19 06:10:39;;;;;;;9.48;3.58;;;;;;;;;;3392638;42;20112;-62
2022/09/19 06:13:11;;;;;;;8.77;3.87;;;;;;;;;;3392913;42;20094;-58
2022/09/19 06:15:38;;;;;;;12.00;3.80;;;;;;;;;;3376111;42;20160;-59
2022/09/19 06:18:04;;;;;;;7.75;3.90;;;;;;;;;;3393591;42;20078;-58
2022/09/19 06:20:30;;;;;;;10.48;3.67;;;;;;;;;;3397145;42;20094;-57
2022/09/19 06:23:02;;;;;;;8.82;3.85;;;;;;;;;;3393327;42;20114;-59
2022/09/19 06:25:29;;;;;;;8.87;3.70;;;;;;;;;;3392458;42;20109;-58
2022/09/19 06:27:56;;;;;;;12.93;4.20;;;;;;;;;;3392497;42;20140;-58
2022/09/19 06:30:22;;;;;;;12.10;3.95;;;;;;;;;;3392538;42;20082;-58
2022/09/19 06:32:49;;;;;;;10.45;3.70;;;;;;;;;;3392749;42;20082;-58
2022/09/19 06:35:15;;;;;;;9.23;4.22;;;;;;;;;;3383122;42;20087;-59
2022/09/19 06:37:41;;;;;;;8.33;3.93;;;;;;;;;;3392965;42;20208;-57
2022/09/19 06:40:08;;;;;;;8.75;4.50;;;;;;;;;;3393820;42;20155;-57
2022/09/19 06:42:34;;;;;;;9.90;3.72;;;;;;;;;;3392774;42;20727;-56
2022/09/19 06:45:00;;;;;;;11.57;4.40;;;;;;;;;;3393309;42;20096;-60
2022/09/19 06:47:26;;;;;;;11.47;4.03;;;;;;;;;;3392979;42;20120;-60
2022/09/19 06:49:52;;;;;;;9.47;3.73;;;;;;;;;;3392709;42;20273;-58
2022/09/19 06:52:18;;;;;;;8.27;4.00;;;;;;;;;;3384133;42;20556;-57
2022/09/19 06:54:44;;;;;;;11.23;3.92;;;;;;;;;;3392997;42;20555;-58
2022/09/19 06:57:11;;;;;;;9.50;4.05;;;;;;;;;;3392939;42;20734;-57
2022/09/19 06:59:38;;;;;;;10.43;4.10;;;;;;;;;;3384074;42;20086;-58
2022/09/19 07:02:04;;;;;;;9.63;4.07;;;;;;;;;;3392983;42;20106;-57
2022/09/19 07:04:30;;;;;;;16.77;3.83;;;;;;;;;;3383898;42;20094;-55
2022/09/19 07:06:56;;;;;;;10.73;3.83;;;;;;;;;;3392852;42;20150;-57
2022/09/19 07:09:23;;;;;;;7.68;3.50;;;;;;;;;;3393030;42;20090;-58
2022/09/19 07:11:56;;;;;;;8.40;3.87;;;;;;;;;;3383549;42;20553;-59
2022/09/19 07:14:23;;;;;;;11.07;4.40;;;;;;;;;;3383171;42;20082;-57
2022/09/19 07:16:49;;;;;;;9.63;4.10;;;;;;;;;;3383151;42;20549;-58
2022/09/19 07:19:15;;;;;;;11.70;4.38;;;;;;;;;;3392643;42;20580;-58
2022/09/19 07:21:41;;;;;;;10.95;4.40;;;;;;;;;;3392731;42;20205;-59
2022/09/19 07:24:07;;;;;;;10.07;3.83;;;;;;;;;;3383452;42;20090;-57
2022/09/19 07:26:33;;;;;;;9.93;4.10;;;;;;;;;;3392537;42;20093;-57
2022/09/19 07:28:59;;;;;;;11.38;4.40;;;;;;;;;;3392865;42;20071;-55
2022/09/19 07:31:28;;;;;;;9.50;4.03;;;;;;;;;;3393018;42;20168;-56
2022/09/19 07:33:54;;;;;;;10.00;3.70;;;;;;;;;;3392808;42;20113;-61
2022/09/19 07:36:21;;;;;;;8.55;3.63;;;;;;;;;;3392629;42;20527;-58
2022/09/19 07:38:50;;;;;;;10.73;4.10;;;;;;;;;;3383389;42;20114;-55
2022/09/19 07:41:17;;;;;;;9.10;3.60;;;;;;;;;;3392250;42;20090;-58
2022/09/19 07:43:43;;;;;;;9.23;4.18;;;;;;;;;;3382349;42;20098;-56
2022/09/19 07:46:14;;;;;;;10.63;3.80;;;;;;;;;;3393314;42;20187;-58
2022/09/19 07:48:42;;;;;;;9.80;4.28;;;;;;;;;;3394591;42;20112;-58
2022/09/19 07:51:08;;;;;;;8.68;4.00;;;;;;;;;;3395558;42;20148;-58
2022/09/19 07:53:34;;;;;;;9.20;3.67;;;;;;;;;;3394153;42;20096;-57
2022/09/19 07:56:01;;;;;;;10.15;3.63;;;;;;;;;;3383273;42;20140;-59
2022/09/19 07:58:27;;;;;;;14.00;4.20;;;;;;;;;;3383684;42;20161;-61
2022/09/19 08:00:53;;;;;;;9.45;3.75;;;;;;;;;;3394027;42;20082;-60
2022/09/19 08:03:20;;;;;;;8.73;3.55;;;;;;;;;;3383642;42;20620;-60
2022/09/19 08:05:48;;;;;;;13.10;3.90;;;;;;;;;;3394156;42;20126;-60
2022/09/19 08:08:15;;;;;;;9.13;3.50;;;;;;;;;;3395303;42;20532;-59
2022/09/19 08:10:41;;;;;;;11.27;3.43;;;;;;;;;;3394434;42;20192;-61
2022/09/19 08:13:11;;;;;;;10.60;4.07;;;;;;;;;;3385396;42;20213;-60
2022/09/19 08:15:37;;;;;;;9.55;3.65;;;;;;;;;;3385539;42;20136;-60
2022/09/19 08:18:05;;;;;;;9.00;3.30;;;;;;;;;;3394341;42;20094;-61
2022/09/19 08:20:32;;;;;;;9.50;3.55;;;;;;;;;;3394567;42;20083;-60
2022/09/19 08:23:00;;;;;;;9.40;3.73;;;;;;;;;;3384067;42;20170;-60
2022/09/19 08:25:27;;;;;;;9.15;3.80;;;;;;;;;;3395662;42;20094;-59
2022/09/19 08:27:55;;;;;;;7.85;3.55;;;;;;;;;;3396047;42;20086;-59
2022/09/19 08:30:22;;;;;;;9.75;3.22;;;;;;;;;;3394883;42;20078;-59
2022/09/19 08:32:49;;;;;;;7.60;3.35;;;;;;;;;;3384622;42;20130;-59
2022/09/19 08:35:16;;;;;;;7.90;3.20;;;;;;;;;;3383502;42;20138;-60
2022/09/19 08:37:43;;;;;;;11.52;3.47;;;;;;;;;;3393728;42;20094;-59
2022/09/19 08:40:18;;;;;;;8.85;3.40;;;;;;;;;;3383322;42;20093;-60
2022/09/19 08:43:05;;;;;;;10.13;3.45;;;;;;;;;;3380179;42;20800;-59
2022/09/19 08:45:52;;;;;;;8.48;3.15;;;;;;;;;;3387917;42;20136;-57
2022/09/19 08:48:24;;;;;;;7.93;3.10;;;;;;;;;;3394085;42;20542;-62
2022/09/19 08:51:19;;;;;;;7.82;3.00;;;;;;;;;;3385148;42;20164;-60
2022/09/19 08:54:02;;;;;;;7.78;3.15;;;;;;;;;;3378107;42;20091;-61
2022/09/19 08:56:29;;;;;;;9.35;3.10;;;;;;;;;;3378531;42;20571;-58
2022/09/19 08:59:01;;;;;;;9.50;3.08;;;;;;;;;;3385105;42;20120;-60
2022/09/19 09:01:37;;;;;;;8.30;2.80;;;;;;;;;;3379766;42;20101;-59
2022/09/19 09:04:31;;;;;;;7.97;2.78;;;;;;;;;;3378173;42;20086;-60
2022/09/19 09:06:59;;;;;;;9.52;3.13;;;;;;;;;;3391398;42;20098;-62
2022/09/19 09:09:48;;;;;;;7.78;2.63;;;;;;;;;;3394787;42;20132;-61
2022/09/19 09:12:44;;;;;;;7.05;3.10;;;;;;;;;;3382974;42;20608;-59
2022/09/19 09:15:31;;;;;;;5.77;2.70;;;;;;;;;;3393754;42;20156;-59
2022/09/19 09:18:30;;;;;;;8.10;3.10;;;;;;;;;;3388026;42;20082;-59
2022/09/19 09:21:03;;;;;;;7.80;3.17;;;;;;;;;;3379314;42;20091;-60
2022/09/19 09:23:35;;;;;;;9.38;3.35;;;;;;;;;;3384664;42;20091;-60
2022/09/19 09:26:06;;;;;;;8.93;2.80;;;;;;;;;;3394619;42;20100;-57
2022/09/19 09:28:38;;;;;;;6.30;2.40;;;;;;;;;;3384803;42;20548;-61
2022/09/19 09:31:25;;;;;;;8.95;2.88;;;;;;;;;;3392133;42;20122;-59
2022/09/19 09:33:51;;;;;;;7.95;2.90;;;;;;;;;;3393671;42;20082;-58
2022/09/19 09:36:22;;;;;;;7.95;2.83;;;;;;;;;;3393711;42;20574;-59
2022/09/19 09:38:55;;;;;;;10.95;2.92;;;;;;;;;;3377138;42;20070;-59
2022/09/19 09:41:52;;;;;;;6.33;2.80;;;;;;;;;;3376562;42;20075;-59
2022/09/19 09:44:44;;;;;;;7.35;2.78;;;;;;;;;;3383632;42;20126;-59
2022/09/19 09:47:43;;;;;;;8.32;2.80;;;;;;;;;;3392437;42;20181;-59
2022/09/19 09:50:27;;;;;;;9.05;3.20;;;;;;;;;;3395012;42;20078;-59
2022/09/19 09:53:03;;;;;;;9.05;2.58;;;;;;;;;;3385874;42;20078;-62
2022/09/19 09:58:35;;;;;;;8.65;2.60;;;;;;;;;;3384481;42;20885;-61
2022/09/19 10:04:03;;;;;;;10.77;2.83;;;;;;;;;;3381513;42;20189;-63
2022/09/19 10:06:40;;;;;;;8.38;2.80;;;;;;;;;;3374667;42;20151;-60
2022/09/19 10:09:12;;;;;;;7.73;2.67;;;;;;;;;;3384568;42;20599;-62
2022/09/19 10:11:56;;;;;;;7.43;2.70;;;;;;;;;;3383904;42;20751;-61
2022/09/19 10:14:28;;;;;;;9.10;2.90;;;;;;;;;;3381034;42;20134;-60
2022/09/19 10:16:56;;;;;;;11.23;3.10;;;;;;;;;;3384758;42;20541;-62
2022/09/19 10:19:27;;;;;;;7.90;2.80;;;;;;;;;;3376689;42;20086;-59
2022/09/19 10:21:54;;;;;;;6.40;2.50;;;;;;;;;;3382267;42;20087;-60
2022/09/19 10:24:55;;;;;;;6.93;2.38;;;;;;;;;;3393684;42;20129;-61
2022/09/19 10:27:24;;;;;;;7.57;2.58;;;;;;;;;;3394262;42;20086;-59
2022/09/19 10:29:51;;;;;;;8.60;2.70;;;;;;;;;;3385198;42;20101;-59
2022/09/19 10:32:19;;;;;;;6.88;2.47;;;;;;;;;;3376698;42;20098;-60
2022/09/19 10:34:45;;;;;;;6.13;2.40;;;;;;;;;;3393463;42;20108;-62
2022/09/19 10:37:15;;;;;;;8.25;2.72;;;;;;;;;;3393626;42;20171;-59
2022/09/19 10:39:44;;;;;;;7.63;2.80;;;;;;;;;;3393615;42;20084;-61
2022/09/19 10:42:42;;;;;;;5.95;2.50;;;;;;;;;;3393378;42;20082;-61
2022/09/19 10:45:18;;;;;;;8.38;2.78;;;;;;;;;;3378885;42;20546;-61
2022/09/19 10:47:44;;;;;;;9.53;2.53;;;;;;;;;;3376771;42;20130;-60
2022/09/19 10:50:15;;;;;;;7.60;2.70;;;;;;;;;;3384195;42;20105;-58
2022/09/19 10:52:44;;;;;;;9.45;2.80;;;;;;;;;;3383788;42;20095;-58
2022/09/19 10:55:21;;;;;;;7.85;2.67;;;;;;;;;;3376267;42;20102;-59
2022/09/19 10:58:16;;;;;;;5.93;2.47;;;;;;;;;;3386434;42;20132;-59
2022/09/19 11:00:55;;;;;;;11.10;2.83;;;;;;;;;;3389364;42;20619;-59
2022/09/19 11:03:29;;;;;;;6.88;2.40;;;;;;;;;;3384498;42;20090;-60
2022/09/19 11:06:14;;;;;;;7.95;3.05;;;;;;;;;;3392768;42;20120;-60
2022/09/19 11:08:45;;;;;;;9.20;2.40;;;;;;;;;;3380501;42;20094;-58
2022/09/19 11:11:40;;;;;;;8.13;2.63;;;;;;;;;;3376391;42;20098;-61
2022/09/19 11:14:31;;;;;;;7.37;2.80;;;;;;;;;;3395729;42;20563;-60
2022/09/19 11:17:08;;;;;;;7.95;2.70;;;;;;;;;;3397033;42;20154;-59
2022/09/19 11:20:01;;;;;;;6.97;2.65;;;;;;;;;;3393549;42;20094;-60
2022/09/19 11:22:40;;;;;;;8.88;2.75;;;;;;;;;;3395713;42;20093;-59
2022/09/19 11:25:21;;;;;;;7.35;2.72;;;;;;;;;;3395546;42;20112;-62
2022/09/19 11:28:05;;;;;;;9.20;2.97;;;;;;;;;;3388235;42;20600;-59
2022/09/19 11:30:34;;;;;;;6.72;2.85;;;;;;;;;;3394338;42;20586;-59
2022/09/19 11:33:04;;;;;;;8.18;2.83;;;;;;;;;;3391899;42;20599;-60
2022/09/19 11:35:36;;;;;;;6.80;2.55;;;;;;;;;;3385480;42;20090;-59
2022/09/19 11:38:32;;;;;;;7.57;2.75;;;;;;;;;;3373875;42;20091;-58
2022/09/19 11:41:17;;;;;;;8.20;2.70;;;;;;;;;;3390399;42;20075;-60
2022/09/19 11:44:20;;;;;;;7.95;2.15;;;;;;;;;;3393686;42;20113;-58
2022/09/19 11:47:18;;;;;;;6.18;2.50;;;;;;;;;;3391109;42;20160;-61
2022/09/19 11:50:14;;;;;;;8.82;2.80;;;;;;;;;;3382098;42;20091;-60
2022/09/19 11:52:54;;;;;;;6.93;2.53;;;;;;;;;;3390473;42;20142;-61
2022/09/19 11:55:46;;;;;;;6.80;2.40;;;;;;;;;;3384119;42;20489;-58
2022/09/19 11:58:30;;;;;;;7.22;2.38;;;;;;;;;;3386026;42;20133;-59
2022/09/19 12:01:15;;;;;;;7.30;2.50;;;;;;;;;;3395283;42;20125;-58
2022/09/19 12:04:18;;;;;;;7.05;2.60;;;;;;;;;;3393584;42;20082;-58
2022/09/19 12:07:26;;;;;;;7.82;2.60;;;;;;;;;;3375861;42;20102;-61
2022/09/19 12:10:00;;;;;;;6.47;2.23;;;;;;;;;;3385839;42;20094;-59
2022/09/19 12:12:30;;;;;;;7.03;2.30;;;;;;;;;;3380604;42;20102;-58
2022/09/19 12:15:36;;;;;;;7.13;2.40;;;;;;;;;;3392803;42;20173;-59
2022/09/19 12:18:10;;;;;;;10.93;2.50;;;;;;;;;;3357186;42;20096;-59
2022/09/19 12:20:39;;;;;;;7.20;2.40;;;;;;;;;;3384606;42;20125;-57
2022/09/19 12:26:22;;;;;;;10.35;2.60;;;;;;;;;;3394547;42;20192;-59
2022/09/19 12:29:32;;;;;;;8.70;2.40;;;;;;;;;;3393460;42;20573;-59
2022/09/19 12:32:03;;;;;;;10.40;2.20;;;;;;;;;;3397891;42;20161;-59
2022/09/19 12:34:35;;;;;;;9.43;2.70;;;;;;;;;;3386039;42;20097;-59
2022/09/19 12:37:19;;;;;;;10.03;2.30;;;;;;;;;;3379138;42;20580;-59
2022/09/19 12:39:49;;;;;;;9.38;2.63;;;;;;;;;;3397285;42;20094;-60
2022/09/19 12:42:32;;;;;;;8.35;2.17;;;;;;;;;;3395311;42;20090;-59
2022/09/19 12:45:06;;;;;;;11.55;2.47;;;;;;;;;;3397643;42;20495;-60
2022/09/19 12:47:39;;;;;;;8.52;2.60;;;;;;;;;;3380163;42;20142;-60
2022/09/19 12:50:15;;;;;;;8.33;2.60;;;;;;;;;;3385568;42;20138;-60
2022/09/19 12:52:44;;;;;;;8.27;2.90;;;;;;;;;;3387009;42;20558;-60
2022/09/19 12:55:25;;;;;;;7.25;2.70;;;;;;;;;;3369610;42;20104;-61
2022/09/19 12:58:20;;;;;;;8.95;2.90;;;;;;;;;;3389328;42;20137;-63
2022/09/19 13:00:46;;;;;;;10.73;2.70;;;;;;;;;;3387525;42;20154;-61
2022/09/19 13:03:26;;;;;;;7.97;2.87;;;;;;;;;;3388341;42;20098;-60
2022/09/19 13:06:00;;;;;;;7.07;2.70;;;;;;;;;;3395715;42;20638;-60
2022/09/19 13:08:42;;;;;;;12.52;3.22;;;;;;;;;;3376972;42;20105;-59
2022/09/19 13:11:23;;;;;;;10.68;2.90;;;;;;;;;;3383991;42;20092;-61
2022/09/19 13:13:59;;;;;;;10.48;3.28;;;;;;;;;;3372935;42;20079;-58
2022/09/19 13:16:35;;;;;;;7.10;2.83;;;;;;;;;;3383596;42;20075;-63
2022/09/19 13:24:41;;;;;;;10.80;3.10;;;;;;;;;;3379167;42;20209;-59
2022/09/19 13:27:09;;;;;;;8.18;3.00;;;;;;;;;;3384019;42;20079;-59
2022/09/19 13:29:35;;;;;;;9.47;2.83;;;;;;;;;;3376105;42;20143;-59
2022/09/19 13:32:02;;;;;;;7.95;3.00;;;;;;;;;;3394591;42;20117;-61
2022/09/19 13:35:00;;;;;;;8.23;3.15;;;;;;;;;;3394340;42;20090;-60
2022/09/19 13:37:26;;;;;;;9.45;3.30;;;;;;;;;;3396400;42;20194;-61
2022/09/19 13:40:21;;;;;;;10.00;3.40;;;;;;;;;;3395111;42;20595;-61
2022/09/19 13:42:50;;;;;;;11.45;3.28;;;;;;;;;;3395018;42;20196;-60
2022/09/19 13:45:53;;;;;;;8.73;3.25;;;;;;;;;;3394671;42;20122;-59
2022/09/19 13:48:56;;;;;;;10.45;3.60;;;;;;;;;;3395988;42;20094;-60
2022/09/19 13:51:39;;;;;;;11.27;3.58;;;;;;;;;;3388018;42;20836;-59
2022/09/19 13:54:31;;;;;;;8.97;3.20;;;;;;;;;;3388580;42;192408;-61
2022/09/19 13:57:02;;;;;;;11.30;3.55;;;;;;;;;;3395656;42;20623;-61
2022/09/19 13:59:31;;;;;;;8.68;3.20;;;;;;;;;;3397177;42;20090;-60
2022/09/19 14:02:03;;;;;;;10.60;3.65;;;;;;;;;;3394842;42;20097;-58
2022/09/19 14:04:53;;;;;;;11.50;3.25;;;;;;;;;;3383850;42;20102;-60
2022/09/19 14:07:27;;;;;;;8.80;3.43;;;;;;;;;;3392115;42;20078;-58
2022/09/19 14:10:01;;;;;;;12.18;3.15;;;;;;;;;;3392587;42;20090;-60
2022/09/19 14:12:35;;;;;;;9.13;3.72;;;;;;;;;;3381609;42;20157;-61
2022/09/19 14:15:01;;;;;;;9.23;3.63;;;;;;;;;;3393322;42;20544;-60
2022/09/19 14:17:31;;;;;;;8.63;3.63;;;;;;;;;;3392875;42;20094;-60
2022/09/19 14:20:01;;;;;;;11.77;3.30;;;;;;;;;;3395073;42;20116;-61
2022/09/19 14:22:39;;;;;;;9.55;3.50;;;;;;;;;;3395737;42;20150;-61
2022/09/19 14:25:23;;;;;;;10.25;3.53;;;;;;;;;;3372597;42;20109;-61
2022/09/19 14:28:27;;;;;;;8.95;3.30;;;;;;;;;;3382565;42;20083;-60
2022/09/19 14:31:06;;;;;;;9.45;3.55;;;;;;;;;;3385563;42;20098;-60
2022/09/19 14:33:32;;;;;;;9.60;3.30;;;;;;;;;;3381035;42;20844;-59
2022/09/19 14:36:09;;;;;;;9.55;3.30;;;;;;;;;;3392744;42;20608;-60
2022/09/19 14:39:03;;;;;;;7.90;3.58;;;;;;;;;;3383814;42;20161;-62
2022/09/19 14:41:43;;;;;;;8.85;3.70;;;;;;;;;;3374801;42;20094;-62
2022/09/19 14:44:34;;;;;;;12.75;4.25;;;;;;;;;;3384477;42;20145;-60
2022/09/19 14:47:17;;;;;;;11.80;3.67;;;;;;;;;;3383393;42;20614;-61
2022/09/19 14:49:49;;;;;;;9.80;3.40;;;;;;;;;;3375723;42;20146;-57
2022/09/19 14:52:20;;;;;;;15.13;3.80;;;;;;;;;;3375634;42;20105;-60
2022/09/19 14:54:51;;;;;;;9.98;3.80;;;;;;;;;;3383306;42;20637;-58
2022/09/19 14:57:20;;;;;;;10.85;3.80;;;;;;;;;;3392807;42;20513;-58
2022/09/19 14:59:46;;;;;;;8.57;4.17;;;;;;;;;;3392291;42;20581;-59
2022/09/19 15:02:18;;;;;;;9.30;3.70;;;;;;;;;;3382249;42;20607;-60
2022/09/19 15:04:45;;;;;;;9.18;4.32;;;;;;;;;;3379080;42;20186;-58
2022/09/19 15:07:11;;;;;;;8.27;3.55;;;;;;;;;;3392198;42;20544;-59
2022/09/19 15:09:38;;;;;;;8.20;3.90;;;;;;;;;;3392198;42;20098;-59
2022/09/19 15:12:14;;;;;;;9.20;4.03;;;;;;;;;;3392328;42;20102;-59
2022/09/19 15:14:48;;;;;;;9.23;3.80;;;;;;;;;;3375692;42;20087;-61
2022/09/19 15:17:18;;;;;;;9.70;3.83;;;;;;;;;;3392794;42;20122;-58
2022/09/19 15:19:49;;;;;;;10.55;3.83;;;;;;;;;;3392419;42;20102;-60
2022/09/19 15:22:54;;;;;;;10.30;4.32;;;;;;;;;;3392278;42;20098;-58
2022/09/19 15:25:28;;;;;;;9.13;4.20;;;;;;;;;;3352062;42;20084;-59
2022/09/19 15:27:56;;;;;;;9.93;4.10;;;;;;;;;;3336241;42;20084;-60
2022/09/19 15:30:30;;;;;;;10.30;4.47;;;;;;;;;;3374120;42;20082;-59
2022/09/19 15:33:11;;;;;;;10.85;4.30;;;;;;;;;;3392247;42;20508;-59
2022/09/19 15:35:38;;;;;;;11.25;4.53;;;;;;;;;;3390068;42;20175;-61
2022/09/19 15:38:15;;;;;;;11.10;4.23;;;;;;;;;;3375893;42;20098;-61
2022/09/19 15:40:41;;;;;;;10.15;4.55;;;;;;;;;;3376932;42;20202;-61